Time;durP1;ratioP1;P1;durP2;ratioP2;P2;SDS_P1;SDS_P2;PMS_P1;PMS_P2;Temp;Humidity;BMP_temperature;BMP_pressure;BME280_temperature;BME280_humidity;BME280_pressure;Samples;Min_cycle;Max_cycle;Signal;HPM_P1;HPM_P2
2022/08/31 00:04:57;;;;;;;5.33;3.80;;;;;;;20.46;65.27;99616.64;1723590;82;21439;-64
2022/08/31 00:07:26;;;;;;;5.35;3.92;;;;;;;20.46;65.44;99612.14;1743584;80;21424;-64
2022/08/31 00:09:53;;;;;;;4.30;3.60;;;;;;;20.48;65.95;99612.84;1722452;82;21743;-64
2022/08/31 00:12:22;;;;;;;4.45;3.50;;;;;;;20.48;65.95;99612.84;1729786;80;21510;-64
2022/08/31 00:14:49;;;;;;;4.92;3.92;;;;;;;20.42;66.65;99613.37;1730173;82;21664;-63
2022/08/31 00:17:15;;;;;;;8.93;3.70;;;;;;;20.37;67.34;99619.09;1737928;82;21459;-63
2022/08/31 00:19:42;;;;;;;4.65;3.15;;;;;;;20.36;67.42;99618.75;1724816;82;21486;-63
2022/08/31 00:22:09;;;;;;;6.78;3.90;;;;;;;20.32;67.55;99611.94;1731548;80;21810;-66
2022/08/31 00:24:36;;;;;;;5.37;3.87;;;;;;;20.29;67.72;99615.39;1739461;80;21504;-63
2022/08/31 00:27:04;;;;;;;4.60;3.62;;;;;;;20.23;67.96;99610.91;1729473;80;21573;-63
2022/08/31 00:29:31;;;;;;;7.78;3.65;;;;;;;20.15;68.28;99610.69;1720931;82;21052;-63
2022/08/31 00:31:58;;;;;;;4.05;3.35;;;;;;;20.13;68.75;99615.80;1726169;82;21472;-64
2022/08/31 00:34:26;;;;;;;4.83;3.70;;;;;;;20.10;68.86;99618.72;1733036;82;21883;-63
2022/08/31 00:36:53;;;;;;;5.08;3.60;;;;;;;20.11;69.37;99621.27;1726925;82;21038;-63
2022/08/31 00:39:21;;;;;;;7.40;3.75;;;;;;;20.12;70.32;99614.96;1725300;82;21486;-63
2022/08/31 00:41:47;;;;;;;7.83;3.53;;;;;;;20.14;70.59;99625.02;1734954;80;21522;-63
2022/08/31 00:44:15;;;;;;;4.03;3.42;;;;;;;20.17;71.06;99622.58;1737726;80;21430;-64
2022/08/31 00:46:42;;;;;;;5.87;3.98;;;;;;;20.17;71.21;99617.23;1722878;82;21501;-64
2022/08/31 00:49:17;;;;;;;6.10;3.98;;;;;;;20.17;71.64;99615.90;1729480;82;21491;-64
2022/08/31 00:51:55;;;;;;;3.92;3.08;;;;;;;20.15;71.81;99616.02;1725572;81;21452;-64
2022/08/31 00:54:30;;;;;;;4.10;3.70;;;;;;;20.15;71.94;99616.02;1734426;80;21521;-63
2022/08/31 00:56:57;;;;;;;4.53;3.62;;;;;;;20.11;71.93;99613.75;1731240;82;21451;-64
2022/08/31 00:59:23;;;;;;;6.58;3.30;;;;;;;20.00;72.02;99615.97;1734926;80;21495;-64
2022/08/31 01:01:50;;;;;;;6.15;3.58;;;;;;;20.00;72.02;99615.97;1719233;82;21558;-64
2022/08/31 01:04:17;;;;;;;5.50;3.80;;;;;;;20.00;72.02;99615.97;1736107;81;21941;-64
2022/08/31 01:06:44;;;;;;;4.87;3.27;;;;;;;19.93;71.89;99618.77;1735743;81;21460;-66
2022/08/31 01:09:11;;;;;;;4.25;3.35;;;;;;;19.87;71.97;99620.13;1715334;82;21466;-64
2022/08/31 01:11:39;;;;;;;7.47;3.42;;;;;;;19.86;72.46;99615.78;1729238;82;22039;-63
2022/08/31 01:14:07;;;;;;;4.78;3.37;;;;;;;19.85;72.29;99619.41;1732715;81;21522;-64
2022/08/31 01:16:47;;;;;;;3.37;3.07;;;;;;;19.80;72.43;99622.95;1731151;80;21518;-64
2022/08/31 01:19:25;;;;;;;3.70;3.40;;;;;;;19.82;72.44;99619.67;1733336;80;21546;-64
2022/08/31 01:22:03;;;;;;;5.08;3.27;;;;;;;19.81;72.79;99620.14;1729786;80;21466;-64
2022/08/31 01:24:31;;;;;;;7.42;3.50;;;;;;;19.81;73.56;99625.47;1721033;80;21972;-65
2022/08/31 01:27:03;;;;;;;3.85;3.42;;;;;;;19.79;73.71;99624.75;1732424;80;21423;-65
2022/08/31 01:29:31;;;;;;;5.45;3.55;;;;;;;19.76;73.82;99625.48;1725108;80;21549;-64
2022/08/31 01:31:57;;;;;;;4.03;3.35;;;;;;;19.76;74.61;99626.82;1733055;80;21463;-64
2022/08/31 01:34:24;;;;;;;4.70;3.30;;;;;;;19.72;74.99;99624.02;1729790;82;21573;-64
2022/08/31 01:36:52;;;;;;;;;;;;;;;19.68;74.87;99625.24;1732392;80;21762;-65
2022/08/31 01:39:19;;;;;;;5.35;3.42;;;;;;;19.64;78.25;99623.30;1728020;81;20441;-64
2022/08/31 01:41:46;;;;;;;4.25;3.47;;;;;;;19.61;75.57;99619.58;1729120;80;21514;-64
2022/08/31 01:44:16;;;;;;;4.93;2.80;;;;;;;19.61;75.72;99622.23;1726471;80;21475;-66
2022/08/31 01:46:44;;;;;;;5.40;3.30;;;;;;;19.57;76.00;99620.30;1737646;81;20958;-66
2022/08/31 01:49:12;;;;;;;3.75;3.25;;;;;;;19.56;76.36;99617.26;1743951;80;21565;-66
2022/08/31 01:51:40;;;;;;;3.70;3.08;;;;;;;19.55;76.56;99622.71;1736678;81;21526;-66
2022/08/31 01:54:07;;;;;;;4.20;3.40;;;;;;;19.53;77.01;99614.83;1707809;82;21664;-66
2022/08/31 01:56:39;;;;;;;4.60;3.65;;;;;;;19.55;76.86;99620.05;1665880;85;21074;-66
2022/08/31 01:59:10;;;;;;;4.55;3.30;;;;;;;19.56;76.90;99621.26;1688087;84;21546;-67
2022/08/31 02:01:57;;;;;;;3.85;3.20;;;;;;;19.54;77.19;99625.03;1688259;83;21605;-66
2022/08/31 02:04:26;;;;;;;3.58;3.27;;;;;;;19.55;77.12;99618.71;1689704;83;21507;-66
2022/08/31 02:06:56;;;;;;;3.40;3.02;;;;;;;19.53;77.46;99615.33;1686169;82;20999;-66
2022/08/31 02:09:24;;;;;;;3.40;3.10;;;;;;;19.52;77.64;99621.15;1696496;84;21511;-65
2022/08/31 02:11:51;;;;;;;5.20;3.25;;;;;;;19.55;77.58;99620.05;1687582;84;21025;-65
2022/08/31 02:14:19;;;;;;;4.47;3.70;;;;;;;19.53;78.17;99616.66;1689603;83;21734;-64
2022/08/31 02:16:46;;;;;;;5.47;3.90;;;;;;;19.50;78.21;99615.59;1682093;83;21551;-63
2022/08/31 02:19:12;;;;;;;3.83;3.17;;;;;;;19.40;78.65;99614.13;1685445;84;21570;-64
2022/08/31 02:21:39;;;;;;;5.67;3.80;;;;;;;19.39;78.69;99607.11;1678674;83;21542;-66
2022/08/31 02:24:06;;;;;;;3.75;3.17;;;;;;;19.38;78.93;99604.94;1681658;82;20962;-64
2022/08/31 02:26:34;;;;;;;4.47;3.75;;;;;;;19.38;79.19;99603.61;1686763;83;21820;-64
2022/08/31 02:29:06;;;;;;;4.37;3.58;;;;;;;19.40;79.24;99602.13;1688446;83;21565;-64
2022/08/31 02:31:34;;;;;;;5.85;2.72;;;;;;;19.33;79.52;99600.45;1682040;83;21057;-63
2022/08/31 02:34:01;;;;;;;6.28;3.55;;;;;;;19.33;79.59;99601.78;1689292;83;22133;-64
2022/08/31 02:36:31;;;;;;;5.15;2.95;;;;;;;19.37;79.55;99607.23;1682110;83;21587;-63
2022/08/31 02:38:57;;;;;;;5.30;3.33;;;;;;;19.40;79.49;99601.66;1692494;83;21444;-64
2022/08/31 02:41:24;;;;;;;3.25;2.65;;;;;;;19.44;79.29;99600.94;1686807;82;21443;-64
2022/08/31 02:43:50;;;;;;;3.55;3.15;;;;;;;19.42;79.21;99603.72;1687044;83;21467;-63
2022/08/31 02:46:17;;;;;;;5.10;3.22;;;;;;;19.37;79.44;99603.23;1675237;84;21622;-64
2022/08/31 02:48:48;;;;;;;6.22;3.15;;;;;;;19.36;79.47;99602.02;1667347;85;21443;-63
2022/08/31 02:51:17;;;;;;;4.20;3.33;;;;;;;19.35;79.67;99615.84;1682326;83;21922;-63
2022/08/31 02:53:46;;;;;;;6.42;2.90;;;;;;;19.32;79.73;99609.90;1720139;82;21594;-63
2022/08/31 02:56:13;;;;;;;;;;;;;;;19.27;80.10;99608.95;1718745;81;21540;-64
2022/08/31 02:58:40;;;;;;;2.95;2.72;;;;;;;19.23;82.68;99618.13;1729054;80;20448;-63
2022/08/31 03:01:07;;;;;;;3.65;3.02;;;;;;;19.22;80.22;99610.63;1713859;81;21476;-64
2022/08/31 03:03:34;;;;;;;3.93;3.20;;;;;;;19.23;79.88;99607.47;1726333;81;21729;-64
2022/08/31 03:06:02;;;;;;;3.02;2.83;;;;;;;19.17;80.48;99607.47;1720835;82;21594;-65
2022/08/31 03:08:28;;;;;;;4.42;2.75;;;;;;;19.18;80.51;99607.84;1732088;81;21479;-62
2022/08/31 03:10:57;;;;;;;4.28;2.67;;;;;;;19.13;80.66;99609.19;1724031;80;21480;-62
2022/08/31 03:13:23;;;;;;;4.12;3.05;;;;;;;19.11;81.18;99603.97;1725218;81;21432;-62
2022/08/31 03:15:51;;;;;;;4.62;3.00;;;;;;;19.13;81.49;99598.52;1719969;80;21937;-62
2022/08/31 03:18:19;;;;;;;3.92;3.02;;;;;;;19.10;81.80;99606.75;1729033;82;21644;-62
2022/08/31 03:20:46;;;;;;;5.15;3.12;;;;;;;19.11;81.78;99612.45;1724612;81;20987;-62
2022/08/31 03:23:14;;;;;;;3.80;3.10;;;;;;;19.13;81.67;99606.52;1724257;82;21479;-62
2022/08/31 03:25:41;;;;;;;4.55;3.22;;;;;;;19.14;81.01;99608.23;1723754;81;21539;-63
2022/08/31 03:28:09;;;;;;;4.00;3.27;;;;;;;19.15;81.84;99609.91;1729918;82;21890;-63
2022/08/31 03:30:38;;;;;;;4.40;2.80;;;;;;;19.16;81.55;99611.13;1713193;82;21467;-62
2022/08/31 03:33:07;;;;;;;3.55;3.25;;;;;;;19.15;81.93;99607.24;1701504;82;21459;-63
2022/08/31 03:35:34;;;;;;;;;;;;;;;19.18;82.03;99605.67;1720189;81;21543;-63
2022/08/31 03:38:02;;;;;;;4.42;2.77;;;;;;;19.20;84.42;99607.73;1729883;82;20198;-64
2022/08/31 03:40:29;;;;;;;2.95;2.70;;;;;;;19.14;82.44;99605.07;1711031;82;21859;-64
2022/08/31 03:42:57;;;;;;;4.97;3.00;;;;;;;19.19;81.85;99609.56;1724932;82;20959;-62
2022/08/31 03:45:26;;;;;;;5.42;3.20;;;;;;;19.16;82.09;99611.13;1726093;81;22151;-64
2022/08/31 03:47:53;;;;;;;3.72;3.40;;;;;;;19.15;82.26;99607.24;1711180;82;21545;-65
2022/08/31 03:50:21;;;;;;;2.90;2.70;;;;;;;19.12;82.43;99610.14;1735251;82;21700;-63
2022/08/31 03:52:53;;;;;;;3.27;2.98;;;;;;;19.14;82.43;99610.89;1730243;80;21787;-64
2022/08/31 03:55:19;;;;;;;6.10;3.72;;;;;;;19.16;82.83;99616.95;1731827;80;21561;-63
2022/08/31 03:57:48;;;;;;;4.97;3.00;;;;;;;19.17;83.02;99617.30;1730164;82;20968;-63
2022/08/31 04:00:15;;;;;;;4.77;3.17;;;;;;;19.20;83.65;99620.56;1729745;81;21488;-64
2022/08/31 04:02:42;;;;;;;4.17;2.85;;;;;;;19.24;83.12;99622.51;1733113;82;21061;-64
2022/08/31 04:05:31;;;;;;;;;;;;;;;19.26;83.60;99617.90;1731061;81;21439;-63
2022/08/31 04:08:17;;;;;;;3.15;2.60;;;;;;;19.28;86.54;99627.95;1732268;80;20468;-62
2022/08/31 04:11:12;;;;;;;3.85;3.15;;;;;;;19.31;83.26;99625.05;1734010;82;21601;-64
2022/08/31 04:13:57;;;;;;;3.15;2.70;;;;;;;19.36;82.53;99625.52;1738717;80;21389;-68
2022/08/31 04:16:42;;;;;;;5.55;3.45;;;;;;;19.40;83.09;99634.98;1735093;80;21579;-63
2022/08/31 04:19:18;;;;;;;4.67;2.62;;;;;;;19.48;82.82;99625.04;1733899;82;21635;-62
2022/08/31 04:21:50;;;;;;;9.88;3.02;;;;;;;19.51;82.96;99634.59;1698248;82;21581;-61
2022/08/31 04:24:18;;;;;;;;;;;;;;;19.55;83.26;99628.91;1730185;80;21493;-61
2022/08/31 04:26:50;;;;;;;3.40;2.67;;;;;;;19.61;86.56;99632.41;1730138;80;20434;-60
2022/08/31 04:29:17;;;;;;;3.25;2.95;;;;;;;19.64;83.02;99636.64;1724516;82;21567;-61
2022/08/31 04:31:45;;;;;;;3.23;3.00;;;;;;;19.67;82.56;99632.90;1731663;82;22066;-60
2022/08/31 04:34:13;;;;;;;3.55;2.83;;;;;;;19.74;82.87;99628.30;1732366;80;21574;-60
2022/08/31 04:36:39;;;;;;;3.58;2.92;;;;;;;19.82;82.84;99634.34;1692440;82;21581;-60
2022/08/31 04:39:06;;;;;;;3.83;3.05;;;;;;;19.91;82.77;99632.73;1662563;85;21532;-61
2022/08/31 04:41:35;;;;;;;3.60;3.30;;;;;;;19.96;82.36;99630.54;1669721;84;20954;-60
2022/08/31 04:44:03;;;;;;;4.75;3.17;;;;;;;19.99;82.42;99635.14;1648871;84;21884;-61
2022/08/31 04:46:31;;;;;;;4.00;3.37;;;;;;;20.01;82.54;99633.69;1670705;84;21042;-60
2022/08/31 04:48:58;;;;;;;3.58;2.60;;;;;;;20.09;82.46;99637.89;1688976;83;21538;-61
2022/08/31 04:51:28;;;;;;;3.58;2.90;;;;;;;20.17;82.26;99640.80;1723304;82;21487;-61
2022/08/31 04:53:55;;;;;;;3.75;2.65;;;;;;;20.28;82.05;99641.22;1729197;82;21490;-61
2022/08/31 04:56:26;;;;;;;4.77;3.27;;;;;;;20.28;81.60;99639.88;1717536;80;21753;-61
2022/08/31 04:58:59;;;;;;;2.70;2.47;;;;;;;20.29;81.90;99635.41;1719343;82;21549;-61
2022/08/31 05:01:30;;;;;;;3.30;2.67;;;;;;;20.31;82.47;99636.13;1723834;82;22133;-60
2022/08/31 05:03:59;;;;;;;5.10;3.15;;;;;;;20.38;82.15;99636.81;1711663;82;21498;-61
2022/08/31 05:06:29;;;;;;;5.28;3.37;;;;;;;20.46;81.49;99635.33;1724578;82;21408;-61
2022/08/31 05:09:01;;;;;;;5.00;3.00;;;;;;;20.50;81.80;99631.42;1722844;81;21395;-62
2022/08/31 05:11:28;;;;;;;2.92;2.50;;;;;;;20.60;81.15;99637.20;1716421;82;21480;-61
2022/08/31 05:13:58;;;;;;;3.55;2.98;;;;;;;20.77;80.94;99641.11;1714940;81;21505;-62
2022/08/31 05:16:26;;;;;;;4.47;2.90;;;;;;;20.79;81.47;99639.64;1722402;81;21452;-61
2022/08/31 05:18:52;;;;;;;3.42;3.12;;;;;;;20.79;81.47;99639.64;1723444;82;21499;-62
2022/08/31 05:21:29;;;;;;;3.30;3.00;;;;;;;20.88;80.76;99640.20;1723858;81;22145;-61
2022/08/31 05:24:05;;;;;;;3.97;2.93;;;;;;;20.98;80.50;99639.77;1721082;82;21326;-61
2022/08/31 05:26:36;;;;;;;3.75;3.00;;;;;;;21.08;79.85;99641.63;1709186;82;21763;-61
2022/08/31 05:29:05;;;;;;;2.98;2.75;;;;;;;21.18;80.28;99643.87;1722136;81;21633;-61
2022/08/31 05:31:32;;;;;;;3.40;3.10;;;;;;;21.18;80.28;99643.87;1714337;80;21613;-61
2022/08/31 05:33:59;;;;;;;3.83;2.85;;;;;;;21.28;79.35;99633.21;1721236;81;22015;-62
2022/08/31 05:36:28;;;;;;;3.47;3.15;;;;;;;21.38;78.63;99639.47;1713121;81;21432;-61
2022/08/31 05:38:57;;;;;;;5.22;2.60;;;;;;;21.38;78.63;99639.47;1722006;82;21463;-61
2022/08/31 05:41:24;;;;;;;5.03;3.00;;;;;;;21.50;78.45;99640.23;1710248;82;21566;-61
2022/08/31 05:43:51;;;;;;;3.17;2.40;;;;;;;21.54;78.40;99639.81;1722921;82;21535;-62
2022/08/31 05:46:18;;;;;;;2.92;2.70;;;;;;;21.62;77.88;99632.44;1724472;81;21784;-62
2022/08/31 05:48:44;;;;;;;5.40;2.42;;;;;;;21.73;77.61;99634.16;1743084;80;21527;-62
2022/08/31 05:51:15;;;;;;;3.90;2.60;;;;;;;21.81;77.33;99633.47;1732613;81;21408;-62
2022/08/31 05:53:42;;;;;;;2.75;2.55;;;;;;;22.01;76.48;99633.02;1746937;81;21561;-63
2022/08/31 05:56:13;;;;;;;2.52;2.33;;;;;;;22.01;76.48;99633.02;1734570;80;21406;-62
2022/08/31 05:58:41;;;;;;;3.27;2.37;;;;;;;22.11;76.39;99633.86;1740946;81;21518;-62
2022/08/31 06:01:30;;;;;;;2.83;2.62;;;;;;;22.11;76.39;99633.86;1734694;81;20997;-62
2022/08/31 06:04:13;;;;;;;2.40;2.20;;;;;;;22.20;75.86;99633.52;1742301;80;21637;-62
2022/08/31 06:06:41;;;;;;;3.98;2.10;;;;;;;22.30;75.44;99631.70;1738966;81;20998;-62
2022/08/31 06:09:10;;;;;;;2.55;2.00;;;;;;;22.33;75.05;99639.47;1731412;81;21488;-61
2022/08/31 06:11:40;;;;;;;3.90;3.02;;;;;;;22.45;74.65;99639.70;1737815;81;21840;-61
2022/08/31 06:14:05;;;;;;;2.77;2.58;;;;;;;22.49;74.38;99637.55;1743109;81;21542;-61
2022/08/31 06:16:34;;;;;;;3.45;2.58;;;;;;;22.53;74.48;99634.96;1737326;80;21548;-62
2022/08/31 06:19:05;;;;;;;4.05;2.17;;;;;;;22.56;74.35;99635.99;1736033;81;21572;-61
2022/08/31 06:21:48;;;;;;;2.33;2.15;;;;;;;22.66;74.35;99631.95;1679688;84;21565;-62
2022/08/31 06:24:15;;;;;;;4.05;2.75;;;;;;;22.66;74.35;99631.95;1684986;84;21582;-64
2022/08/31 06:26:53;;;;;;;2.85;2.42;;;;;;;22.80;73.87;99638.22;1688190;83;21652;-63
2022/08/31 06:29:14;;;;;;;4.40;2.33;;;;;;;22.86;73.28;99631.44;1687413;83;21599;-65
2022/08/31 06:31:45;;;;;;;4.40;2.60;;;;;;;23.06;72.64;99628.25;1683912;83;21592;-65
2022/08/31 06:34:10;;;;;;;3.75;2.50;;;;;;;23.06;72.64;99628.25;1687112;83;21590;-63
2022/08/31 06:36:47;;;;;;;3.83;2.33;;;;;;;23.25;71.77;99631.34;1680307;83;21903;-63
2022/08/31 06:39:16;;;;;;;3.00;2.12;;;;;;;23.25;71.77;99631.34;1670038;83;21452;-62
2022/08/31 06:41:51;;;;;;;4.95;2.33;;;;;;;23.35;71.07;99627.28;1687312;83;21605;-63
2022/08/31 06:44:21;;;;;;;5.40;2.25;;;;;;;23.49;70.39;99633.50;1646671;84;21717;-64
2022/08/31 06:46:52;;;;;;;3.37;1.65;;;;;;;23.53;70.11;99637.57;1632243;84;21437;-64
2022/08/31 06:49:21;;;;;;;3.42;1.50;;;;;;;23.56;69.39;99632.39;1685103;83;21593;-64
2022/08/31 06:51:50;;;;;;;1.85;1.70;;;;;;;23.66;68.23;99623.80;1651981;84;21513;-63
2022/08/31 06:54:20;;;;;;;2.87;1.52;;;;;;;23.73;67.24;99626.72;1705496;82;21595;-63
2022/08/31 06:57:05;;;;;;;3.42;1.52;;;;;;;23.73;66.86;99627.55;1700256;82;21077;-62
2022/08/31 06:59:52;;;;;;;1.90;1.67;;;;;;;23.80;66.94;99626.50;1697111;83;21571;-64
2022/08/31 07:02:39;;;;;;;3.22;1.67;;;;;;;23.89;66.01;99626.94;1699724;82;21639;-63
2022/08/31 07:05:07;;;;;;;3.10;2.07;;;;;;;23.92;65.84;99622.58;1686874;82;21488;-63
2022/08/31 07:07:33;;;;;;;2.12;1.92;;;;;;;24.01;64.64;99636.44;1698801;82;21573;-64
2022/08/31 07:10:00;;;;;;;1.52;1.42;;;;;;;24.14;63.98;99628.02;1700464;83;21449;-65
2022/08/31 07:12:29;;;;;;;3.20;1.65;;;;;;;24.25;63.42;99630.47;1700530;82;21606;-63
2022/08/31 07:14:56;;;;;;;1.75;1.42;;;;;;;24.35;62.66;99625.52;1699048;82;27267;-64
2022/08/31 07:17:24;;;;;;;;;;;;;;;24.44;62.79;99624.08;1703541;82;20980;-65
2022/08/31 07:19:50;;;;;;;2.27;1.47;;;;;;;24.53;60.68;99622.85;1699197;83;20245;-62
2022/08/31 07:22:19;;;;;;;2.08;1.20;;;;;;;24.58;61.73;99628.10;1682951;83;21089;-62
2022/08/31 07:24:47;;;;;;;1.40;1.30;;;;;;;24.66;61.85;99634.03;1694158;83;21600;-62
2022/08/31 07:27:15;;;;;;;2.22;1.35;;;;;;;24.78;60.88;99627.38;1661422;83;21890;-63
2022/08/31 07:29:46;;;;;;;2.27;1.40;;;;;;;24.74;60.69;99631.91;1688262;83;21621;-62
2022/08/31 07:32:16;;;;;;;1.22;1.12;;;;;;;24.72;60.64;99634.74;1679098;83;21599;-62
2022/08/31 07:34:43;;;;;;;1.50;1.22;;;;;;;24.71;60.81;99628.17;1692321;83;21652;-62
2022/08/31 07:42:45;;;;;;;0.93;0.93;;;;;;;24.75;60.02;99625.03;1692549;83;21506;-62
2022/08/31 07:45:23;;;;;;;5.37;1.10;;;;;;;24.66;60.26;99628.66;1688952;83;21727;-63
2022/08/31 07:47:51;;;;;;;2.65;1.05;;;;;;;24.64;60.37;99626.63;1675723;82;21585;-61
2022/08/31 07:50:20;;;;;;;1.52;1.10;;;;;;;24.68;60.62;99622.63;1688759;82;21527;-62
2022/08/31 07:53:07;;;;;;;4.62;1.15;;;;;;;24.93;60.33;99618.75;1691357;82;21871;-62
2022/08/31 07:55:36;;;;;;;1.42;1.30;;;;;;;25.11;59.24;99618.19;1624944;84;21534;-63
2022/08/31 07:58:07;;;;;;;1.60;1.50;;;;;;;25.17;58.84;99612.67;1670976;83;21564;-63
2022/08/31 08:00:34;;;;;;;2.85;1.32;;;;;;;25.15;58.99;99619.55;1686193;83;21555;-63
2022/08/31 08:03:06;;;;;;;2.33;1.25;;;;;;;25.02;59.12;99609.73;1685556;81;21619;-63
2022/08/31 08:05:37;;;;;;;1.72;1.35;;;;;;;25.01;59.50;99606.17;1685786;82;21583;-62
2022/08/31 08:08:15;;;;;;;2.75;1.40;;;;;;;25.14;59.48;99607.09;1686125;83;21636;-63
2022/08/31 08:10:48;;;;;;;1.85;1.50;;;;;;;25.32;59.10;99603.52;1615797;85;21080;-63
2022/08/31 08:13:28;;;;;;;1.00;1.00;;;;;;;25.43;58.53;99608.61;1624105;86;21522;-63
2022/08/31 08:16:02;;;;;;;1.30;1.07;;;;;;;25.33;58.65;99601.98;1675112;83;21650;-67
2022/08/31 08:18:30;;;;;;;1.50;1.30;;;;;;;25.34;59.08;99604.20;1675001;83;21514;-64
2022/08/31 08:20:59;;;;;;;1.30;1.20;;;;;;;25.45;58.78;99612.81;1669048;83;21553;-64
2022/08/31 08:23:26;;;;;;;5.15;1.20;;;;;;;25.57;58.36;99599.06;1653365;84;21481;-65
2022/08/31 08:26:08;;;;;;;2.15;1.27;;;;;;;25.59;58.23;99597.87;1649297;84;21494;-63
2022/08/31 08:28:37;;;;;;;1.60;1.20;;;;;;;25.63;57.80;99605.13;1660708;83;21517;-65
2022/08/31 08:31:05;;;;;;;2.05;1.20;;;;;;;25.60;57.82;99604.13;1660497;84;21927;-63
2022/08/31 08:33:35;;;;;;;1.07;1.00;;;;;;;25.67;57.11;99596.22;1653696;84;20969;-63
2022/08/31 08:36:06;;;;;;;1.80;1.32;;;;;;;25.69;57.05;99591.52;1654389;84;21066;-62
2022/08/31 08:38:33;;;;;;;2.50;1.25;;;;;;;25.79;56.77;99593.58;1650661;84;21465;-62
2022/08/31 08:41:09;;;;;;;1.17;1.07;;;;;;;25.88;56.48;99587.68;1653464;83;21584;-63
2022/08/31 08:43:38;;;;;;;1.80;1.50;;;;;;;25.94;55.75;99585.21;1654196;83;21891;-62
2022/08/31 08:46:07;;;;;;;6.55;2.42;;;;;;;25.80;55.31;99596.59;1648883;84;21557;-61
2022/08/31 08:48:37;;;;;;;2.05;0.98;;;;;;;25.62;55.47;99591.34;1648852;84;21453;-62
2022/08/31 08:51:14;;;;;;;1.67;1.15;;;;;;;25.51;55.53;99599.72;1652479;84;21535;-63
2022/08/31 08:53:45;;;;;;;2.55;1.10;;;;;;;25.29;55.84;99589.87;1652627;84;21577;-61
2022/08/31 08:56:19;;;;;;;1.30;1.20;;;;;;;25.20;56.73;99584.08;1650876;84;21876;-63
2022/08/31 08:58:45;;;;;;;1.75;1.30;;;;;;;25.30;56.55;99583.50;1654710;84;21546;-62
2022/08/31 09:01:17;;;;;;;1.60;1.50;;;;;;;25.42;56.55;99585.38;1652799;84;21472;-62
2022/08/31 09:04:21;;;;;;;1.20;1.10;;;;;;;25.57;55.52;99579.70;1650516;84;22002;-62
2022/08/31 09:07:27;;;;;;;1.55;1.10;;;;;;;25.65;55.67;99580.23;1654717;84;21496;-62
2022/08/31 09:10:19;;;;;;;1.40;0.90;;;;;;;25.71;55.58;99574.69;1612431;84;22047;-61
2022/08/31 09:13:01;;;;;;;2.02;1.10;;;;;;;25.74;54.99;99581.10;1656041;84;21446;-61
2022/08/31 09:16:04;;;;;;;1.45;1.10;;;;;;;25.82;55.11;99577.93;1644775;84;21441;-61
2022/08/31 09:18:58;;;;;;;2.70;1.00;;;;;;;26.04;54.81;99563.50;1530060;90;21022;-61
2022/08/31 09:21:28;;;;;;;1.40;1.00;;;;;;;26.22;54.41;99569.57;1665347;83;21588;-62
2022/08/31 09:24:07;;;;;;;1.30;1.20;;;;;;;26.25;53.74;99581.02;1680949;83;21779;-61
2022/08/31 09:27:17;;;;;;;1.32;0.90;;;;;;;26.14;53.29;99584.38;1682861;81;21463;-61
2022/08/31 09:29:53;;;;;;;1.30;0.90;;;;;;;26.01;53.28;99579.50;1695410;82;21454;-61
2022/08/31 09:32:33;;;;;;;2.95;0.82;;;;;;;26.16;53.31;99571.60;1674846;83;21540;-61
2022/08/31 09:35:13;;;;;;;6.65;1.07;;;;;;;26.46;52.35;99571.06;1685114;83;21435;-61
2022/08/31 09:37:44;;;;;;;0.80;0.80;;;;;;;26.62;51.47;99572.44;1679170;83;22039;-62
2022/08/31 09:40:22;;;;;;;3.47;1.02;;;;;;;26.56;51.53;99575.27;1675476;83;21961;-63
2022/08/31 09:43:12;;;;;;;1.37;1.00;;;;;;;26.37;52.15;99582.34;1671294;83;21490;-62
2022/08/31 09:45:56;;;;;;;1.65;1.17;;;;;;;26.25;52.92;99572.94;1679095;84;21644;-64
2022/08/31 09:48:50;;;;;;;2.37;0.95;;;;;;;26.32;52.47;99562.66;1653586;83;21707;-65
2022/08/31 09:51:30;;;;;;;1.00;0.95;;;;;;;26.41;52.02;99558.95;1653012;85;21878;-66
2022/08/31 09:57:09;;;;;;;1.10;0.82;;;;;;;26.77;50.36;99558.58;1679854;83;21429;-64
2022/08/31 10:01:19;;;;;;;1.00;0.90;;;;;;;26.21;53.17;99565.69;1787342;78;22668;-60
2022/08/31 10:03:47;;;;;;;0.80;0.80;;;;;;;26.85;50.73;99560.92;1766602;80;21611;-64
2022/08/31 10:06:44;;;;;;;1.90;1.10;;;;;;;27.03;50.22;99564.24;1773854;80;21891;-61
2022/08/31 10:09:02;;;;;;;1.40;1.00;;;;;;;26.93;49.68;99564.94;1758844;80;21531;-60
2022/08/31 10:11:31;;;;;;;1.35;0.88;;;;;;;26.69;50.26;99562.66;1758295;80;21528;-59
2022/08/31 10:14:15;;;;;;;1.20;1.10;;;;;;;26.63;50.75;99563.31;1769863;80;21612;-60
2022/08/31 10:16:59;;;;;;;1.60;1.02;;;;;;;26.77;50.97;99558.58;1738687;81;20934;-60
2022/08/31 10:19:33;;;;;;;2.15;1.20;;;;;;;27.04;50.85;99559.68;1720703;81;21875;-59
2022/08/31 10:22:05;;;;;;;1.60;1.20;;;;;;;27.17;49.74;99551.35;1702762;82;21554;-61
2022/08/31 10:24:49;;;;;;;1.22;1.05;;;;;;;27.27;49.22;99551.16;1718826;82;20977;-61
2022/08/31 10:27:31;;;;;;;1.37;1.27;;;;;;;27.23;48.83;99551.67;1716225;82;21601;-61
2022/08/31 10:30:17;;;;;;;2.47;1.17;;;;;;;27.05;48.77;99555.47;1708672;82;21085;-60
2022/08/31 10:33:05;;;;;;;1.25;1.15;;;;;;;27.09;48.89;99550.05;1709375;82;21892;-60
2022/08/31 10:35:55;;;;;;;1.20;1.10;;;;;;;27.12;47.46;99556.94;1719339;82;21523;-62
2022/08/31 10:38:32;;;;;;;2.05;0.68;;;;;;;27.16;46.98;99546.98;1721695;82;21504;-62
2022/08/31 10:41:15;;;;;;;;;;;;;;;27.31;46.44;99536.33;1725394;82;21135;-61
2022/08/31 10:44:02;;;;;;;1.95;0.88;;;;;;;27.51;46.26;99537.22;1720800;82;20440;-60
2022/08/31 10:46:31;;;;;;;0.90;0.90;;;;;;;27.65;46.52;99532.91;1717653;82;22008;-61
2022/08/31 10:48:59;;;;;;;1.32;1.22;;;;;;;27.82;45.87;99534.50;1724451;82;21549;-62
2022/08/31 10:51:45;;;;;;;2.55;1.12;;;;;;;27.89;45.76;99528.70;1723775;82;21486;-61
2022/08/31 10:54:27;;;;;;;1.17;0.98;;;;;;;28.03;45.48;99530.28;1718534;82;21444;-62
2022/08/31 10:57:28;;;;;;;0.95;0.88;;;;;;;28.13;44.54;99528.19;1722449;82;21580;-61
2022/08/31 11:03:25;;;;;;;1.20;1.10;;;;;;;28.06;43.21;99531.28;1696405;83;21127;-61
2022/08/31 11:06:22;;;;;;;0.80;0.80;;;;;;;27.82;43.15;99541.25;1710337;83;21605;-61
2022/08/31 11:09:02;;;;;;;2.42;1.10;;;;;;;27.62;43.29;99532.77;1695527;83;21584;-62
2022/08/31 11:11:41;;;;;;;1.80;1.02;;;;;;;27.43;43.50;99534.06;1702207;82;21496;-61
2022/08/31 11:14:29;;;;;;;2.85;1.20;;;;;;;27.46;43.60;99522.89;1714260;83;21907;-61
2022/08/31 11:17:30;;;;;;;1.80;1.27;;;;;;;27.59;43.51;99520.95;1709852;83;21089;-60
2022/08/31 11:20:23;;;;;;;1.22;1.22;;;;;;;27.69;44.06;99521.58;1698477;83;21515;-61
2022/08/31 11:23:10;;;;;;;1.02;1.02;;;;;;;27.66;44.45;99518.39;1701870;83;21626;-62
2022/08/31 11:26:30;;;;;;;1.37;1.20;;;;;;;27.63;44.83;99520.09;1702370;83;21621;-62
2022/08/31 11:29:14;;;;;;;1.17;1.07;;;;;;;27.57;44.53;99526.53;1765398;80;21742;-63
2022/08/31 11:31:42;;;;;;;1.10;1.07;;;;;;;27.55;44.75;99527.73;1770133;80;21513;-63
2022/08/31 11:34:16;;;;;;;2.00;0.90;;;;;;;27.48;44.73;99526.77;1761913;80;21580;-62
2022/08/31 11:36:50;;;;;;;1.47;1.00;;;;;;;27.46;44.65;99518.00;1761750;80;21475;-62
2022/08/31 11:39:25;;;;;;;0.90;0.90;;;;;;;27.26;44.95;99519.81;1756255;80;21037;-62
2022/08/31 11:41:53;;;;;;;1.45;1.35;;;;;;;27.30;44.40;99515.73;1766018;80;21873;-62
2022/08/31 11:44:38;;;;;;;1.02;0.90;;;;;;;27.35;44.39;99517.41;1764758;80;21565;-66
2022/08/31 11:47:29;;;;;;;1.62;1.52;;;;;;;27.49;44.17;99513.61;1763156;80;21574;-61
2022/08/31 11:50:07;;;;;;;1.20;1.10;;;;;;;27.70;44.59;99515.66;1757314;80;21546;-62
2022/08/31 11:52:47;;;;;;;3.85;1.47;;;;;;;27.94;44.31;99504.70;1758034;80;21072;-62
2022/08/31 11:55:28;;;;;;;1.32;1.22;;;;;;;28.01;44.00;99505.31;1764271;80;21862;-63
2022/08/31 11:58:10;;;;;;;1.60;1.50;;;;;;;28.18;43.97;99495.20;1763247;80;21080;-64
2022/08/31 12:01:08;;;;;;;4.70;1.60;;;;;;;28.34;43.68;99503.98;1758681;80;21689;-62
2022/08/31 12:04:02;;;;;;;1.92;1.20;;;;;;;28.33;43.39;99500.11;1649128;83;21642;-62
2022/08/31 12:06:36;;;;;;;1.35;1.25;;;;;;;28.35;43.16;99492.69;1643376;85;21554;-61
2022/08/31 12:09:12;;;;;;;3.42;1.57;;;;;;;28.32;43.05;99492.52;1721289;80;21955;-61
2022/08/31 12:11:56;;;;;;;1.30;1.20;;;;;;;28.39;43.41;99483.66;1737145;80;21729;-60
2022/08/31 12:14:34;;;;;;;0.95;0.95;;;;;;;28.35;43.10;99498.92;1749061;80;21523;-60
2022/08/31 12:17:22;;;;;;;4.05;1.10;;;;;;;28.38;42.49;99495.00;1744708;80;21575;-60
2022/08/31 12:20:13;;;;;;;1.00;1.00;;;;;;;28.31;42.08;99500.81;1740967;80;21491;-62